Time;durP1;ratioP1;P1;durP2;ratioP2;P2;SDS_P1;SDS_P2;PMS_P1;PMS_P2;Temp;Humidity;BMP_temperature;BMP_pressure;BME280_temperature;BME280_humidity;BME280_pressure;Samples;Min_cycle;Max_cycle;Signal;HPM_P1;HPM_P2
2022/06/03 00:01:53;;;;;;;;;;;;;;;;;;5076987;28;19908;-41
2022/06/03 00:04:21;;;;;;;;;;;;;;;;;;5078761;28;19908;-42
2022/06/03 00:06:49;;;;;;;;;;;;;;;;;;5079714;28;19955;-42
2022/06/03 00:09:14;;;;;;;;;;;;;;;;;;5078984;28;19955;-41
2022/06/03 00:11:41;;;;;;;;;;;;;;;;;;5078660;28;19908;-41
2022/06/03 00:14:06;;;;;;;;;;;;;;;;;;5079044;28;19919;-41
2022/06/03 00:16:31;;;;;;;;;;;;;;;;;;5078712;28;20275;-42
2022/06/03 00:18:57;;;;;;;;;;;;;;;;;;5078273;28;19919;-41
2022/06/03 00:21:23;;;;;;;;;;;;;;;;;;5078238;28;19909;-41
2022/06/03 00:23:51;;;;;;;;;;;;;;;;;;5078363;28;19954;-41
2022/06/03 00:26:16;;;;;;;;;;;;;;;;;;5078988;28;19939;-42
2022/06/03 00:28:42;;;;;;;;;;;;;;;;;;5078925;28;19908;-42
2022/06/03 00:31:10;;;;;;;;;;;;;;;;;;5078460;28;19912;-41
2022/06/03 00:33:38;;;;;;;;;;;;;;;;;;5078707;28;19962;-42
2022/06/03 00:36:03;;;;;;;;;;;;;;;;;;5078418;28;19908;-41
2022/06/03 00:38:30;;;;;;;;;;;;;;;;;;5078440;28;19982;-41
2022/06/03 00:40:55;;;;;;;;;;;;;;;;;;5078837;28;19916;-41
2022/06/03 00:43:20;;;;;;;;;;;;;;;;;;5078568;28;19932;-41
2022/06/03 00:45:48;;;;;;;;;;;;;;;;;;5078549;28;19908;-41
2022/06/03 00:48:13;;;;;;;;;;;;;;;;;;5078429;28;19982;-41
2022/06/03 00:50:41;;;;;;;;;;;;;;;;;;5078222;28;19908;-42
2022/06/03 00:53:09;;;;;;;;;;;;;;;;;;5078475;28;19935;-41
2022/06/03 00:55:34;;;;;;;;;;;;;;;;;;5078165;28;19912;-41
2022/06/03 00:57:59;;;;;;;;;;;;;;;;;;5077961;28;19966;-41
2022/06/03 01:00:25;;;;;;;;;;;;;;;;;;5070630;28;19934;-41
2022/06/03 01:02:52;;;;;;;;;;;;;;;;;;5057966;28;19916;-41
2022/06/03 01:05:20;;;;;;;;;;;;;;;;;;5057583;28;19963;-41
2022/06/03 01:07:46;;;;;;;;;;;;;;;;;;5057898;28;20276;-42
2022/06/03 01:10:12;;;;;;;;;;;;;;;;;;5057877;28;19913;-41
2022/06/03 01:12:40;;;;;;;;;;;;;;;;;;5057859;28;19911;-41
2022/06/03 01:15:09;;;;;;;;;;;;;;;;;;5057613;28;20003;-41
2022/06/03 01:17:37;;;;;;;;;;;;;;;;;;5058715;28;19920;-42
2022/06/03 01:20:02;;;;;;;;;;;;;;;;;;5057907;28;19909;-42
2022/06/03 01:22:30;;;;;;;;;;;;;;;;;;5057748;28;19919;-41
2022/06/03 01:24:59;;;;;;;;;;;;;;;;;;5057784;28;19976;-41
2022/06/03 01:27:24;;;;;;;;;;;;;;;;;;5057742;28;19962;-41
2022/06/03 01:29:51;;;;;;;;;;;;;;;;;;5057625;28;19906;-41
2022/06/03 01:32:17;;;;;;;;;;;;;;;;;;5057778;28;19920;-41
2022/06/03 01:34:45;;;;;;;;;;;;;;;;;;5057516;28;19909;-41
2022/06/03 01:37:11;;;;;;;;;;;;;;;;;;5057547;28;19909;-42
2022/06/03 01:39:36;;;;;;;;;;;;;;;;;;5057133;28;19921;-41
2022/06/03 01:42:01;;;;;;;;;;;;;;;;;;5057283;28;19915;-41
2022/06/03 01:44:26;;;;;;;;;;;;;;;;;;5057412;28;19920;-42
2022/06/03 01:46:51;;;;;;;;;;;;;;;;;;5057506;28;19909;-41
2022/06/03 01:49:17;;;;;;;;;;;;;;;;;;5057168;28;19935;-42
2022/06/03 01:51:42;;;;;;;;;;;;;;;;;;5057245;28;19916;-41
2022/06/03 01:54:09;;;;;;;;;;;;;;;;;;5057224;28;20371;-41
2022/06/03 01:56:34;;;;;;;;;;;;;;;;;;5057337;28;19948;-41
2022/06/03 01:59:00;;;;;;;;;;;;;;;;;;5056415;28;19912;-41
2022/06/03 02:01:28;;;;;;;;;;;;;;;;;;5056517;28;19913;-42
2022/06/03 02:03:53;;;;;;;;;;;;;;;;;;5056436;28;19909;-41
2022/06/03 02:06:20;;;;;;;;;;;;;;;;;;5056033;28;19916;-42
2022/06/03 02:08:48;;;;;;;;;;;;;;;;;;5056426;28;19912;-41
2022/06/03 02:11:16;;;;;;;;;;;;;;;;;;5055080;28;19908;-41
2022/06/03 02:13:42;;;;;;;;;;;;;;;;;;5056370;28;20276;-41
2022/06/03 02:16:10;;;;;;;;;;;;;;;;;;5056592;28;19919;-41
2022/06/03 02:18:35;;;;;;;;;;;;;;;;;;5056059;28;20356;-41
2022/06/03 02:21:00;;;;;;;;;;;;;;;;;;5056076;28;19915;-41
2022/06/03 02:23:25;;;;;;;;;;;;;;;;;;5055501;28;20012;-42
2022/06/03 02:25:51;;;;;;;;;;;;;;;;;;5055885;28;19908;-41
2022/06/03 02:28:16;;;;;;;;;;;;;;;;;;5056361;28;20336;-41
2022/06/03 02:30:44;;;;;;;;;;;;;;;;;;5056018;28;19908;-42
2022/06/03 02:33:11;;;;;;;;;;;;;;;;;;5056114;28;19971;-41
2022/06/03 02:35:38;;;;;;;;;;;;;;;;;;5055959;28;19916;-41
2022/06/03 02:38:05;;;;;;;;;;;;;;;;;;5055959;28;19920;-42
2022/06/03 02:40:31;;;;;;;;;;;;;;;;;;5055742;28;20282;-41
2022/06/03 02:42:59;;;;;;;;;;;;;;;;;;5055974;28;19970;-42
2022/06/03 02:45:27;;;;;;;;;;;;;;;;;;5055645;28;20351;-41
2022/06/03 02:47:52;;;;;;;;;;;;;;;;;;5055659;28;19909;-41
2022/06/03 02:50:17;;;;;;;;;;;;;;;;;;5059593;28;20412;-41
2022/06/03 02:52:45;;;;;;;;;;;;;;;;;;5075727;28;20000;-41
2022/06/03 02:55:11;;;;;;;;;;;;;;;;;;5075688;28;19909;-42
2022/06/03 02:57:36;;;;;;;;;;;;;;;;;;5075980;28;19966;-42
2022/06/03 03:00:02;;;;;;;;;;;;;;;;;;5075028;28;19908;-41
2022/06/03 03:02:27;;;;;;;;;;;;;;;;;;5075509;28;19912;-41
2022/06/03 03:04:55;;;;;;;;;;;;;;;;;;5075323;28;20275;-41
2022/06/03 03:07:20;;;;;;;;;;;;;;;;;;5075273;28;19908;-41
2022/06/03 03:09:48;;;;;;;;;;;;;;;;;;5075285;28;19961;-42
2022/06/03 03:12:16;;;;;;;;;;;;;;;;;;5075668;28;19912;-41
2022/06/03 03:14:41;;;;;;;;;;;;;;;;;;5075262;28;20003;-41
2022/06/03 03:17:09;;;;;;;;;;;;;;;;;;5075327;28;19948;-41
2022/06/03 03:19:34;;;;;;;;;;;;;;;;;;5076158;28;19913;-41
2022/06/03 03:22:00;;;;;;;;;;;;;;;;;;5075300;28;19962;-41
2022/06/03 03:24:28;;;;;;;;;;;;;;;;;;5075352;28;20378;-41
2022/06/03 03:26:56;;;;;;;;;;;;;;;;;;5075461;28;19912;-41
2022/06/03 03:29:24;;;;;;;;;;;;;;;;;;5075158;28;19909;-41
2022/06/03 03:31:49;;;;;;;;;;;;;;;;;;5075240;28;19970;-42
2022/06/03 03:34:14;;;;;;;;;;;;;;;;;;5075665;28;19916;-41
2022/06/03 03:36:40;;;;;;;;;;;;;;;;;;5079284;28;20066;-42
2022/06/03 03:39:05;;;;;;;;;;;;;;;;;;5079010;28;20279;-41
2022/06/03 03:41:31;;;;;;;;;;;;;;;;;;5079235;28;20430;-41
2022/06/03 03:43:56;;;;;;;;;;;;;;;;;;5079116;28;19912;-41
2022/06/03 03:46:22;;;;;;;;;;;;;;;;;;5079136;28;19909;-41
2022/06/03 03:48:47;;;;;;;;;;;;;;;;;;5079250;28;19931;-40
2022/06/03 03:51:15;;;;;;;;;;;;;;;;;;5079091;28;19909;-41
2022/06/03 03:53:41;;;;;;;;;;;;;;;;;;5079114;28;20267;-41
2022/06/03 03:56:06;;;;;;;;;;;;;;;;;;5078992;28;19912;-41
2022/06/03 03:58:31;;;;;;;;;;;;;;;;;;5078788;28;19912;-42
2022/06/03 04:00:59;;;;;;;;;;;;;;;;;;5077639;28;19908;-41
2022/06/03 04:03:27;;;;;;;;;;;;;;;;;;5065250;28;20406;-41
2022/06/03 04:05:52;;;;;;;;;;;;;;;;;;5058774;28;19955;-41
2022/06/03 04:08:20;;;;;;;;;;;;;;;;;;5058472;28;19909;-41
2022/06/03 04:10:45;;;;;;;;;;;;;;;;;;5059295;28;19912;-41
2022/06/03 04:13:10;;;;;;;;;;;;;;;;;;5058733;28;19916;-41
2022/06/03 04:15:37;;;;;;;;;;;;;;;;;;5058598;28;19975;-41
2022/06/03 04:18:02;;;;;;;;;;;;;;;;;;5058497;28;20427;-41
2022/06/03 04:20:30;;;;;;;;;;;;;;;;;;5058487;28;19955;-42
2022/06/03 04:22:59;;;;;;;;;;;;;;;;;;5057655;28;19963;-42
2022/06/03 04:25:26;;;;;;;;;;;;;;;;;;5058224;28;19912;-41
2022/06/03 04:27:52;;;;;;;;;;;;;;;;;;5058307;28;20363;-41
2022/06/03 04:30:17;;;;;;;;;;;;;;;;;;5057970;28;19916;-41
2022/06/03 04:32:42;;;;;;;;;;;;;;;;;;5058245;28;20008;-41
2022/06/03 04:35:07;;;;;;;;;;;;;;;;;;5058136;28;19920;-41
2022/06/03 04:37:35;;;;;;;;;;;;;;;;;;5058215;28;19916;-41
2022/06/03 04:40:01;;;;;;;;;;;;;;;;;;5057937;28;19921;-42
2022/06/03 04:42:26;;;;;;;;;;;;;;;;;;5058089;28;20058;-41
2022/06/03 04:44:54;;;;;;;;;;;;;;;;;;5057350;28;19913;-41
2022/06/03 04:47:19;;;;;;;;;;;;;;;;;;5057846;28;19909;-41
2022/06/03 04:49:44;;;;;;;;;;;;;;;;;;5057812;28;19917;-41
2022/06/03 04:52:10;;;;;;;;;;;;;;;;;;5057765;28;19943;-41
2022/06/03 04:54:38;;;;;;;;;;;;;;;;;;5057817;28;19909;-41
2022/06/03 04:57:03;;;;;;;;;;;;;;;;;;5057696;28;20268;-41
2022/06/03 04:59:31;;;;;;;;;;;;;;;;;;5057563;28;19965;-41
2022/06/03 05:01:56;;;;;;;;;;;;;;;;;;5076387;28;19940;-41
2022/06/03 05:04:21;;;;;;;;;;;;;;;;;;5077536;28;19936;-41
2022/06/03 05:06:47;;;;;;;;;;;;;;;;;;5077477;28;20282;-41
2022/06/03 05:09:14;;;;;;;;;;;;;;;;;;5077707;28;20355;-41
2022/06/03 05:11:39;;;;;;;;;;;;;;;;;;5077780;28;20019;-41
2022/06/03 05:14:05;;;;;;;;;;;;;;;;;;5078110;28;19943;-41
2022/06/03 05:16:33;;;;;;;;;;;;;;;;;;5078095;28;20386;-42
2022/06/03 05:18:59;;;;;;;;;;;;;;;;;;5090487;28;20297;-41
2022/06/03 05:21:26;;;;;;;;;;;;;;;;;;5098025;28;19954;-41
2022/06/03 05:23:52;;;;;;;;;;;;;;;;;;5066790;28;19913;-41
2022/06/03 05:26:17;;;;;;;;;;;;;;;;;;5057430;28;19962;-40
2022/06/03 05:28:48;;;;;;;;;;;;;;;;;;5057478;28;19909;-40
2022/06/03 05:31:13;;;;;;;;;;;;;;;;;;5062741;28;19913;-47
2022/06/03 05:33:38;;;;;;;;;;;;;;;;;;5066138;28;20359;-48
2022/06/03 05:36:04;;;;;;;;;;;;;;;;;;5082488;28;19904;-45
2022/06/03 05:38:32;;;;;;;;;;;;;;;;;;5081467;28;19950;-46
2022/06/03 05:40:57;;;;;;;;;;;;;;;;;;5077923;28;19917;-44
2022/06/03 05:43:23;;;;;;;;;;;;;;;;;;5080782;28;20325;-47
2022/06/03 05:45:48;;;;;;;;;;;;;;;;;;5067571;28;19958;-45
2022/06/03 05:48:14;;;;;;;;;;;;;;;;;;5073938;28;19913;-47
2022/06/03 05:50:39;;;;;;;;;;;;;;;;;;5077202;28;19919;-45
2022/06/03 05:53:04;;;;;;;;;;;;;;;;;;5064799;28;19912;-47
2022/06/03 05:55:30;;;;;;;;;;;;;;;;;;5060750;28;19913;-45
2022/06/03 05:57:55;;;;;;;;;;;;;;;;;;5063709;28;19924;-44
2022/06/03 06:00:21;;;;;;;;;;;;;;;;;;5062360;28;20066;-48
2022/06/03 06:02:46;;;;;;;;;;;;;;;;;;5052873;28;19927;-45
2022/06/03 06:05:11;;;;;;;;;;;;;;;;;;5042234;28;19921;-46
2022/06/03 06:07:36;;;;;;;;;;;;;;;;;;5044940;28;20356;-44
2022/06/03 06:10:04;;;;;;;;;;;;;;;;;;5027125;28;19921;-45
2022/06/03 06:12:29;;;;;;;;;;;;;;;;;;5002223;28;19928;-46
2022/06/03 06:14:54;;;;;;;;;;;;;;;;;;4991957;28;21310;-46
2022/06/03 06:17:19;;;;;;;;;;;;;;;;;;4935178;28;19927;-45
2022/06/03 06:19:45;;;;;;;;;;;;;;;;;;4906957;28;20060;-46
2022/06/03 06:22:10;;;;;;;;;;;;;;;;;;4864764;28;20511;-45
2022/06/03 06:24:35;;;;;;;;;;;;;;;;;;4842284;28;20480;-49
2022/06/03 06:27:00;;;;;;;;;;;;;;;;;;4659536;28;23101;-47
2022/06/03 06:29:25;;;;;;;;;;;;;;;;;;4556206;28;21462;-48
2022/06/03 06:31:50;;;;;;;;;;;;;;;;;;4573456;28;20673;-48
2022/06/03 06:34:16;;;;;;;;;;;;;;;;;;4735647;28;19954;-47
2022/06/03 06:36:41;;;;;;;;;;;;;;;;;;4811249;28;25279;-47
2022/06/03 06:39:07;;;;;;;;;;;;;;;;;;4814399;28;20474;-49
2022/06/03 06:41:32;;;;;;;;;;;;;;;;;;4879943;28;20455;-47
2022/06/03 06:43:57;;;;;;;;;;;;;;;;;;4866212;28;25407;-46
2022/06/03 06:46:22;;;;;;;;;;;;;;;;;;4868132;28;21096;-47
2022/06/03 06:48:48;;;;;;;;;;;;;;;;;;4883487;28;20647;-47
2022/06/03 06:51:13;;;;;;;;;;;;;;;;;;4886396;28;19920;-47
2022/06/03 06:53:38;;;;;;;;;;;;;;;;;;4874360;28;21553;-49
2022/06/03 06:56:03;;;;;;;;;;;;;;;;;;4868685;28;23512;-48
2022/06/03 06:58:28;;;;;;;;;;;;;;;;;;4852609;28;20424;-49
2022/06/03 07:00:53;;;;;;;;;;;;;;;;;;4825591;28;20764;-48
2022/06/03 07:03:19;;;;;;;;;;;;;;;;;;4855689;28;20512;-48
2022/06/03 07:05:44;;;;;;;;;;;;;;;;;;4861193;28;24396;-45
2022/06/03 07:08:09;;;;;;;;;;;;;;;;;;4843012;28;29054;-46
2022/06/03 07:10:34;;;;;;;;;;;;;;;;;;4803670;28;28866;-47
2022/06/03 07:12:59;;;;;;;;;;;;;;;;;;4779017;28;26434;-46
2022/06/03 07:15:25;;;;;;;;;;;;;;;;;;4797435;28;21920;-47
2022/06/03 07:20:34;;;;;;;;;;;;;;;;;;4651663;28;21068;-48
2022/06/03 07:22:59;;;;;;;;;;;;;;;;;;4498230;28;20035;-48
2022/06/03 07:25:25;;;;;;;;;;;;;;;;;;4586526;28;19999;-48
2022/06/03 07:27:50;;;;;;;;;;;;;;;;;;4614511;28;25029;-48
2022/06/03 07:30:15;;;;;;;;;;;;;;;;;;4712333;28;22750;-48
2022/06/03 07:32:40;;;;;;;;;;;;;;;;;;4765816;28;23477;-48
2022/06/03 07:35:05;;;;;;;;;;;;;;;;;;4788368;28;33317;-47
2022/06/03 07:37:30;;;;;;;;;;;;;;;;;;4751781;28;21581;-49
2022/06/03 07:39:55;;;;;;;;;;;;;;;;;;4748779;28;23441;-47
2022/06/03 07:42:21;;;;;;;;;;;;;;;;;;4763359;28;20826;-47
2022/06/03 07:44:46;;;;;;;;;;;;;;;;;;4765515;28;34921;-46
2022/06/03 07:47:11;;;;;;;;;;;;;;;;;;4776443;28;32860;-48
2022/06/03 07:49:36;;;;;;;;;;;;;;;;;;4775622;28;27518;-48
2022/06/03 07:52:01;;;;;;;;;;;;;;;;;;4784220;28;22006;-48
2022/06/03 07:54:27;;;;;;;;;;;;;;;;;;4713379;28;33210;-48
2022/06/03 07:56:52;;;;;;;;;;;;;;;;;;4757549;28;20422;-47
2022/06/03 07:59:20;;;;;;;;;;;;;;;;;;4739587;28;19924;-46
2022/06/03 08:01:45;;;;;;;;;;;;;;;;;;4697829;28;24986;-48
2022/06/03 08:04:10;;;;;;;;;;;;;;;;;;4664938;28;28351;-47
2022/06/03 08:12:03;;;;;;;;;;;;;;;;;;4586079;28;20754;-45
2022/06/03 08:14:28;;;;;;;;;;;;;;;;;;4586261;28;20604;-45
2022/06/03 08:16:53;;;;;;;;;;;;;;;;;;4733041;28;26758;-47
2022/06/03 08:19:18;;;;;;;;;;;;;;;;;;4765609;28;21659;-46
2022/06/03 08:21:44;;;;;;;;;;;;;;;;;;4792203;28;19920;-44
2022/06/03 08:24:09;;;;;;;;;;;;;;;;;;4817094;28;19950;-47
2022/06/03 08:26:35;;;;;;;;;;;;;;;;;;4764215;28;20480;-45
2022/06/03 08:29:00;;;;;;;;;;;;;;;;;;4635913;28;23671;-46
2022/06/03 08:31:25;;;;;;;;;;;;;;;;;;4584132;28;22845;-46
2022/06/03 08:33:50;;;;;;;;;;;;;;;;;;4686188;28;25199;-47
2022/06/03 08:36:15;;;;;;;;;;;;;;;;;;4786965;28;20448;-46
2022/06/03 08:38:41;;;;;;;;;;;;;;;;;;4778429;28;23892;-47
2022/06/03 08:41:06;;;;;;;;;;;;;;;;;;4794625;28;20078;-44
2022/06/03 08:43:31;;;;;;;;;;;;;;;;;;4771801;28;21740;-46
2022/06/03 08:45:56;;;;;;;;;;;;;;;;;;4788225;28;19996;-46
2022/06/03 08:48:22;;;;;;;;;;;;;;;;;;4771321;28;36673;-48
2022/06/03 08:50:47;;;;;;;;;;;;;;;;;;4737947;28;21503;-46
2022/06/03 08:53:12;;;;;;;;;;;;;;;;;;4817616;28;19971;-46
2022/06/03 08:55:38;;;;;;;;;;;;;;;;;;4774981;28;27022;-48
2022/06/03 08:58:03;;;;;;;;;;;;;;;;;;4775461;28;27029;-46
2022/06/03 09:00:28;;;;;;;;;;;;;;;;;;4737375;28;34826;-46
2022/06/03 09:02:53;;;;;;;;;;;;;;;;;;4776174;28;19927;-46
2022/06/03 09:05:18;;;;;;;;;;;;;;;;;;4699394;28;39809;-46
2022/06/03 09:07:45;;;;;;;;;;;;;;;;;;4721855;28;27536;-45
2022/06/03 09:10:10;;;;;;;;;;;;;;;;;;4724501;28;21560;-46
2022/06/03 09:12:35;;;;;;;;;;;;;;;;;;4728472;28;34773;-47
2022/06/03 09:15:00;;;;;;;;;;;;;;;;;;4751889;28;30021;-46
2022/06/03 09:17:25;;;;;;;;;;;;;;;;;;4673375;28;22378;-45
2022/06/03 09:19:50;;;;;;;;;;;;;;;;;;4648985;28;33953;-46
2022/06/03 09:22:16;;;;;;;;;;;;;;;;;;4531710;28;25806;-46
2022/06/03 09:24:41;;;;;;;;;;;;;;;;;;4424274;28;28016;-48
2022/06/03 09:27:06;;;;;;;;;;;;;;;;;;4552938;28;37414;-47
2022/06/03 09:29:32;;;;;;;;;;;;;;;;;;4700926;28;30159;-47
2022/06/03 09:31:57;;;;;;;;;;;;;;;;;;4700871;28;37955;-46
2022/06/03 09:34:22;;;;;;;;;;;;;;;;;;4694350;28;34703;-46
2022/06/03 09:36:47;;;;;;;;;;;;;;;;;;4741658;28;28575;-47
2022/06/03 09:39:12;;;;;;;;;;;;;;;;;;4714052;28;34203;-47
2022/06/03 09:41:37;;;;;;;;;;;;;;;;;;4727158;28;28525;-44
2022/06/03 09:44:03;;;;;;;;;;;;;;;;;;4681923;28;21197;-47
2022/06/03 09:46:31;;;;;;;;;;;;;;;;;;4716695;28;21291;-46
2022/06/03 09:48:56;;;;;;;;;;;;;;;;;;4719838;28;24083;-51
2022/06/03 09:51:25;;;;;;;;;;;;;;;;;;4723934;28;24689;-45
2022/06/03 09:53:50;;;;;;;;;;;;;;;;;;4690574;28;20631;-45
2022/06/03 09:56:15;;;;;;;;;;;;;;;;;;4702119;28;36035;-47
2022/06/03 09:58:40;;;;;;;;;;;;;;;;;;4728791;28;33323;-46
2022/06/03 10:01:06;;;;;;;;;;;;;;;;;;4762262;28;31244;-45
2022/06/03 10:03:32;;;;;;;;;;;;;;;;;;4752038;28;26583;-47
2022/06/03 10:05:57;;;;;;;;;;;;;;;;;;4636691;28;35604;-45
2022/06/03 10:08:22;;;;;;;;;;;;;;;;;;4641875;28;38337;-46
2022/06/03 10:13:33;;;;;;;;;;;;;;;;;;4480968;28;25530;-47
2022/06/03 10:16:00;;;;;;;;;;;;;;;;;;4646193;28;23524;-46
2022/06/03 10:18:25;;;;;;;;;;;;;;;;;;4742223;28;23848;-45
2022/06/03 10:20:50;;;;;;;;;;;;;;;;;;4767427;28;20700;-47
2022/06/03 10:23:16;;;;;;;;;;;;;;;;;;4800075;28;21997;-46
2022/06/03 10:25:41;;;;;;;;;;;;;;;;;;4776798;28;22144;-46
2022/06/03 10:28:06;;;;;;;;;;;;;;;;;;4781916;28;21111;-46
2022/06/03 10:30:31;;;;;;;;;;;;;;;;;;4789295;28;21869;-45
2022/06/03 10:32:56;;;;;;;;;;;;;;;;;;4762674;28;21461;-46
2022/06/03 10:35:26;;;;;;;;;;;;;;;;;;4769716;28;24801;-47
2022/06/03 10:37:52;;;;;;;;;;;;;;;;;;4682998;28;29580;-45
2022/06/03 10:40:17;;;;;;;;;;;;;;;;;;4649885;22;37439;-47
2022/06/03 10:42:42;;;;;;;;;;;;;;;;;;4676855;28;34739;-45
2022/06/03 10:45:07;;;;;;;;;;;;;;;;;;4716807;28;37896;-46
2022/06/03 10:47:32;;;;;;;;;;;;;;;;;;4785132;28;19947;-46
2022/06/03 10:49:57;;;;;;;;;;;;;;;;;;4824041;28;21687;-45
2022/06/03 11:03:18;;;;;;;;;;;;;;;;;;4735506;28;19947;-46
2022/06/03 11:05:43;;;;;;;;;;;;;;;;;;4751215;28;19921;-45
2022/06/03 11:08:08;;;;;;;;;;;;;;;;;;4792419;28;19921;-47
2022/06/03 11:10:34;;;;;;;;;;;;;;;;;;4816026;28;19925;-46
2022/06/03 11:12:59;;;;;;;;;;;;;;;;;;4848267;28;19920;-46
2022/06/03 11:15:25;;;;;;;;;;;;;;;;;;4820775;28;20070;-45
2022/06/03 11:17:50;;;;;;;;;;;;;;;;;;4866031;28;21077;-45
2022/06/03 11:20:16;;;;;;;;;;;;;;;;;;4854604;28;21137;-45
2022/06/03 11:22:43;;;;;;;;;;;;;;;;;;4793020;28;19931;-46
2022/06/03 11:25:08;;;;;;;;;;;;;;;;;;4828503;28;19920;-48
2022/06/03 11:27:33;;;;;;;;;;;;;;;;;;4806362;28;22187;-46
2022/06/03 11:29:59;;;;;;;;;;;;;;;;;;4738242;28;21766;-46
2022/06/03 11:32:24;;;;;;;;;;;;;;;;;;4718823;28;27712;-45
2022/06/03 11:34:49;;;;;;;;;;;;;;;;;;4756703;28;20013;-46
2022/06/03 11:37:14;;;;;;;;;;;;;;;;;;4790526;28;27672;-47
2022/06/03 11:39:40;;;;;;;;;;;;;;;;;;4795931;28;26163;-46
2022/06/03 11:42:05;;;;;;;;;;;;;;;;;;4827478;28;25578;-47
2022/06/03 11:44:30;;;;;;;;;;;;;;;;;;4793465;28;19953;-47
2022/06/03 11:46:55;;;;;;;;;;;;;;;;;;4776131;28;24735;-47
2022/06/03 11:49:20;;;;;;;;;;;;;;;;;;4803786;28;30265;-44
2022/06/03 11:51:46;;;;;;;;;;;;;;;;;;4835171;28;28560;-45
2022/06/03 11:54:11;;;;;;;;;;;;;;;;;;4841414;28;25887;-46
2022/06/03 11:56:36;;;;;;;;;;;;;;;;;;4822596;28;20413;-44
2022/06/03 11:59:02;;;;;;;;;;;;;;;;;;4826483;28;31155;-46
2022/06/03 12:01:27;;;;;;;;;;;;;;;;;;4778310;28;37499;-46
2022/06/03 12:03:54;;;;;;;;;;;;;;;;;;4796568;28;38637;-46
2022/06/03 12:06:19;;;;;;;;;;;;;;;;;;4808956;28;34696;-45
2022/06/03 12:08:44;;;;;;;;;;;;;;;;;;4801879;28;33219;-45
2022/06/03 12:11:09;;;;;;;;;;;;;;;;;;4815427;28;34392;-46
2022/06/03 12:13:34;;;;;;;;;;;;;;;;;;4792217;28;32882;-46
2022/06/03 12:16:00;;;;;;;;;;;;;;;;;;4800741;28;32884;-45
2022/06/03 12:18:25;;;;;;;;;;;;;;;;;;4772540;28;31324;-45
2022/06/03 12:20:50;;;;;;;;;;;;;;;;;;4750771;28;31098;-45
2022/06/03 12:23:15;;;;;;;;;;;;;;;;;;4730996;28;21267;-47
2022/06/03 12:25:41;;;;;;;;;;;;;;;;;;4721836;28;26154;-44
2022/06/03 12:28:06;;;;;;;;;;;;;;;;;;4786442;28;35135;-45
2022/06/03 12:30:31;;;;;;;;;;;;;;;;;;4780142;28;21908;-45
2022/06/03 12:32:56;;;;;;;;;;;;;;;;;;4813295;28;20372;-46
2022/06/03 12:35:21;;;;;;;;;;;;;;;;;;4807369;28;27361;-45
2022/06/03 12:37:46;;;;;;;;;;;;;;;;;;4822283;28;25973;-48
2022/06/03 12:40:11;;;;;;;;;;;;;;;;;;4812669;28;19978;-46
2022/06/03 12:42:37;;;;;;;;;;;;;;;;;;4809982;28;25973;-45
2022/06/03 12:45:08;;;;;;;;;;;;;;;;;;4817973;28;23422;-45
2022/06/03 12:47:36;;;;;;;;;;;;;;;;;;4828773;28;25967;-46
2022/06/03 12:50:01;;;;;;;;;;;;;;;;;;4823050;28;28281;-45
2022/06/03 12:52:26;;;;;;;;;;;;;;;;;;4823896;28;22326;-47
2022/06/03 12:54:51;;;;;;;;;;;;;;;;;;4829459;28;20494;-46
2022/06/03 12:57:16;;;;;;;;;;;;;;;;;;4834130;28;23616;-46
2022/06/03 12:59:41;;;;;;;;;;;;;;;;;;4823119;28;22164;-45
2022/06/03 13:02:06;;;;;;;;;;;;;;;;;;4825817;28;25317;-45
2022/06/03 13:04:31;;;;;;;;;;;;;;;;;;4807881;28;26349;-46
2022/06/03 13:06:56;;;;;;;;;;;;;;;;;;4804730;28;23616;-45
2022/06/03 13:09:58;;;;;;;;;;;;;;;;;;4798078;28;28677;-44
2022/06/03 13:12:16;;;;;;;;;;;;;;;;;;4797975;28;21595;-46
2022/06/03 13:14:41;;;;;;;;;;;;;;;;;;4835838;28;19924;-45
2022/06/03 13:17:06;;;;;;;;;;;;;;;;;;4884397;28;23977;-46
2022/06/03 13:19:31;;;;;;;;;;;;;;;;;;4906921;28;19936;-46
2022/06/03 13:21:56;;;;;;;;;;;;;;;;;;4974131;28;19921;-46
2022/06/03 13:24:22;;;;;;;;;;;;;;;;;;4962821;28;20279;-45
2022/06/03 13:26:47;;;;;;;;;;;;;;;;;;4987640;28;23952;-45
2022/06/03 13:29:13;;;;;;;;;;;;;;;;;;4989786;28;19967;-46
2022/06/03 13:31:39;;;;;;;;;;;;;;;;;;4989213;28;22362;-46
2022/06/03 13:34:04;;;;;;;;;;;;;;;;;;5012446;28;19967;-45
2022/06/03 13:36:30;;;;;;;;;;;;;;;;;;4991719;28;19920;-42
2022/06/03 13:38:55;;;;;;;;;;;;;;;;;;5006051;28;20578;-46
2022/06/03 13:44:04;;;;;;;;;;;;;;;;;;5020514;28;19947;-46
2022/06/03 13:46:29;;;;;;;;;;;;;;;;;;5009107;28;20345;-45
2022/06/03 13:48:55;;;;;;;;;;;;;;;;;;5005025;28;20026;-46
2022/06/03 13:51:20;;;;;;;;;;;;;;;;;;4994699;28;20364;-48
2022/06/03 13:53:45;;;;;;;;;;;;;;;;;;4982610;28;19955;-47
2022/06/03 13:56:10;;;;;;;;;;;;;;;;;;4994624;28;19970;-45
2022/06/03 13:58:35;;;;;;;;;;;;;;;;;;5001516;28;19920;-45
2022/06/03 14:01:00;;;;;;;;;;;;;;;;;;4999187;28;19920;-45
2022/06/03 14:03:25;;;;;;;;;;;;;;;;;;4974206;28;21784;-45
2022/06/03 14:05:50;;;;;;;;;;;;;;;;;;4977595;28;19931;-45
2022/06/03 14:08:16;;;;;;;;;;;;;;;;;;5018809;28;19982;-45
2022/06/03 14:10:42;;;;;;;;;;;;;;;;;;5047512;28;19920;-46
2022/06/03 14:13:07;;;;;;;;;;;;;;;;;;5030089;28;19920;-44
2022/06/03 14:15:33;;;;;;;;;;;;;;;;;;5039889;28;19920;-43
2022/06/03 14:17:58;;;;;;;;;;;;;;;;;;5046857;28;19931;-43
2022/06/03 14:20:24;;;;;;;;;;;;;;;;;;5038525;28;19927;-46
2022/06/03 14:22:49;;;;;;;;;;;;;;;;;;5041504;28;19928;-46
2022/06/03 14:25:14;;;;;;;;;;;;;;;;;;5047639;28;19920;-43
2022/06/03 14:27:39;;;;;;;;;;;;;;;;;;5045589;28;20240;-46
2022/06/03 14:30:04;;;;;;;;;;;;;;;;;;5042745;28;19999;-46
2022/06/03 14:32:29;;;;;;;;;;;;;;;;;;5040344;28;19966;-45
2022/06/03 14:34:55;;;;;;;;;;;;;;;;;;5048079;28;20024;-46
2022/06/03 14:37:20;;;;;;;;;;;;;;;;;;5046941;28;19920;-45
2022/06/03 14:39:45;;;;;;;;;;;;;;;;;;5046564;28;19932;-45
2022/06/03 14:42:11;;;;;;;;;;;;;;;;;;5050145;28;19967;-44
2022/06/03 14:44:36;;;;;;;;;;;;;;;;;;5050618;28;20382;-43
2022/06/03 14:47:01;;;;;;;;;;;;;;;;;;5054502;28;19946;-45
2022/06/03 14:49:27;;;;;;;;;;;;;;;;;;5051227;28;19920;-44
2022/06/03 14:51:52;;;;;;;;;;;;;;;;;;5049095;28;20387;-45
2022/06/03 14:54:17;;;;;;;;;;;;;;;;;;5058143;28;19920;-45
2022/06/03 14:56:42;;;;;;;;;;;;;;;;;;5064722;28;20310;-46
2022/06/03 14:59:07;;;;;;;;;;;;;;;;;;5064273;28;19925;-47
2022/06/03 15:01:40;;;;;;;;;;;;;;;;;;5069338;28;19913;-46
2022/06/03 15:04:05;;;;;;;;;;;;;;;;;;5073354;28;19955;-47
2022/06/03 15:06:31;;;;;;;;;;;;;;;;;;5073571;28;19916;-44
2022/06/03 15:08:57;;;;;;;;;;;;;;;;;;5072081;28;20367;-45
2022/06/03 15:11:23;;;;;;;;;;;;;;;;;;5070536;28;20007;-45
2022/06/03 15:13:51;;;;;;;;;;;;;;;;;;5072855;28;20376;-48
2022/06/03 15:16:16;;;;;;;;;;;;;;;;;;5069723;28;20637;-46
2022/06/03 15:18:46;;;;;;;;;;;;;;;;;;5072816;28;19925;-44
2022/06/03 15:21:11;;;;;;;;;;;;;;;;;;5071264;28;19966;-46
2022/06/03 15:23:36;;;;;;;;;;;;;;;;;;5071833;28;19913;-45
2022/06/03 15:26:02;;;;;;;;;;;;;;;;;;5072349;28;19963;-45
2022/06/03 15:28:27;;;;;;;;;;;;;;;;;;5072928;28;20283;-47
2022/06/03 15:30:52;;;;;;;;;;;;;;;;;;5080274;28;19959;-46
2022/06/03 15:33:17;;;;;;;;;;;;;;;;;;5077948;28;19920;-45
2022/06/03 15:35:43;;;;;;;;;;;;;;;;;;5077417;28;20015;-46
2022/06/03 15:38:08;;;;;;;;;;;;;;;;;;5079192;28;19927;-47
2022/06/03 15:40:34;;;;;;;;;;;;;;;;;;5075649;28;19935;-46
2022/06/03 15:42:59;;;;;;;;;;;;;;;;;;5077628;28;19908;-45
2022/06/03 15:45:24;;;;;;;;;;;;;;;;;;5077063;28;19966;-45
2022/06/03 15:47:50;;;;;;;;;;;;;;;;;;5076990;28;19966;-45
2022/06/03 15:50:16;;;;;;;;;;;;;;;;;;5078245;28;19913;-44
2022/06/03 15:52:41;;;;;;;;;;;;;;;;;;5078284;28;19920;-44
2022/06/03 15:55:09;;;;;;;;;;;;;;;;;;5078350;28;19913;-47
2022/06/03 15:57:34;;;;;;;;;;;;;;;;;;5076933;28;19913;-45
2022/06/03 15:59:59;;;;;;;;;;;;;;;;;;5076825;28;19969;-46
2022/06/03 16:02:26;;;;;;;;;;;;;;;;;;5077431;28;19986;-46
2022/06/03 16:04:51;;;;;;;;;;;;;;;;;;5088405;28;20010;-45
2022/06/03 16:07:16;;;;;;;;;;;;;;;;;;5083251;28;19944;-45
2022/06/03 16:09:41;;;;;;;;;;;;;;;;;;5077548;28;19912;-43
2022/06/03 16:12:09;;;;;;;;;;;;;;;;;;5077875;28;19959;-43
2022/06/03 16:14:36;;;;;;;;;;;;;;;;;;5077724;28;20019;-45
2022/06/03 16:17:01;;;;;;;;;;;;;;;;;;5077744;28;19919;-42
2022/06/03 16:19:26;;;;;;;;;;;;;;;;;;5077627;28;19925;-42
2022/06/03 16:21:54;;;;;;;;;;;;;;;;;;5077487;28;19908;-43
2022/06/03 16:24:19;;;;;;;;;;;;;;;;;;5077599;28;19950;-42
2022/06/03 16:26:44;;;;;;;;;;;;;;;;;;5077472;28;19912;-43
2022/06/03 16:29:09;;;;;;;;;;;;;;;;;;5077417;28;19977;-43
2022/06/03 16:31:36;;;;;;;;;;;;;;;;;;5077341;28;20017;-43
2022/06/03 16:34:04;;;;;;;;;;;;;;;;;;5077460;28;19909;-43
2022/06/03 16:36:29;;;;;;;;;;;;;;;;;;5077382;28;19908;-43
2022/06/03 16:39:00;;;;;;;;;;;;;;;;;;5077054;28;19927;-45
2022/06/03 16:41:26;;;;;;;;;;;;;;;;;;5076723;28;20050;-45
2022/06/03 16:43:52;;;;;;;;;;;;;;;;;;5077239;28;19912;-42
2022/06/03 16:46:20;;;;;;;;;;;;;;;;;;5077207;28;20286;-43
2022/06/03 16:48:45;;;;;;;;;;;;;;;;;;5077193;28;20264;-43
2022/06/03 16:51:10;;;;;;;;;;;;;;;;;;5077234;28;19930;-43
2022/06/03 16:53:36;;;;;;;;;;;;;;;;;;5077105;28;19936;-43
2022/06/03 16:56:02;;;;;;;;;;;;;;;;;;5077061;28;20279;-43
2022/06/03 16:58:30;;;;;;;;;;;;;;;;;;5077120;28;19912;-44
2022/06/03 17:00:55;;;;;;;;;;;;;;;;;;5077156;28;19908;-43